createdAt,value
2023-04-16T00:02:00.939Z,10.68
2023-04-16T00:04:27.848Z,10.60
2023-04-16T00:06:54.958Z,10.54
2023-04-16T00:09:21.855Z,10.62
2023-04-16T00:11:48.605Z,10.71
2023-04-16T00:14:16.676Z,10.79
2023-04-16T00:16:43.503Z,10.86
2023-04-16T00:19:11.082Z,10.82
2023-04-16T00:21:38.041Z,10.88
2023-04-16T00:24:04.854Z,10.93
2023-04-16T00:26:31.884Z,10.96
2023-04-16T00:28:58.646Z,10.78
2023-04-16T00:31:30.064Z,10.75
2023-04-16T00:33:57.508Z,10.57
2023-04-16T00:36:25.781Z,10.62
2023-04-16T00:38:52.696Z,10.69
2023-04-16T00:41:19.816Z,10.70
2023-04-16T00:43:46.593Z,10.43
2023-04-16T00:46:13.774Z,10.14
2023-04-16T00:48:41.759Z,10.22
2023-04-16T00:51:09.937Z,10.33
2023-04-16T00:53:37.494Z,10.37
2023-04-16T00:56:07.101Z,10.51
2023-04-16T00:58:35.660Z,10.53
2023-04-16T01:01:02.797Z,10.50
2023-04-16T01:03:41.194Z,10.49
2023-04-16T01:06:08.531Z,10.32
2023-04-16T01:08:35.705Z,10.34
2023-04-16T01:11:03.392Z,10.43
2023-04-16T01:13:30.723Z,10.43
2023-04-16T01:15:57.588Z,10.44
2023-04-16T01:18:26.279Z,10.40
2023-04-16T01:20:53.104Z,10.36
2023-04-16T01:23:20.663Z,10.41
2023-04-16T01:25:47.572Z,10.49
2023-04-16T01:28:14.576Z,10.58
2023-04-16T01:30:41.732Z,10.49
2023-04-16T01:33:18.512Z,10.45
2023-04-16T01:35:45.405Z,10.39
2023-04-16T01:38:15.438Z,10.15
2023-04-16T01:40:42.300Z,10.16
2023-04-16T01:43:09.139Z,10.28
2023-04-16T01:45:36.334Z,10.22
2023-04-16T01:48:04.268Z,10.17
2023-04-16T01:50:31.998Z,10.19
2023-04-16T01:52:58.787Z,10.22
2023-04-16T01:55:25.729Z,10.17
2023-04-16T01:57:52.610Z,10.19
2023-04-16T02:00:20.840Z,10.17
2023-04-16T02:02:49.457Z,10.13
2023-04-16T02:05:24.100Z,10.17
2023-04-16T02:07:50.907Z,10.22
2023-04-16T02:10:17.596Z,10.24
2023-04-16T02:12:45.148Z,10.16
2023-04-16T02:15:13.362Z,10.20
2023-04-16T02:17:40.354Z,10.25
2023-04-16T02:20:10.918Z,10.24
2023-04-16T02:22:44.161Z,10.09
2023-04-16T02:25:14.371Z,10.14
2023-04-16T02:27:42.077Z,10.13
2023-04-16T02:30:24.384Z,10.15
2023-04-16T02:32:52.181Z,10.20
2023-04-16T02:35:20.023Z,9.85
2023-04-16T02:37:46.952Z,9.73
2023-04-16T02:40:13.887Z,9.85
2023-04-16T02:42:40.834Z,9.92
2023-04-16T02:45:08.856Z,10.04
2023-04-16T02:47:35.676Z,10.08
2023-04-16T02:50:02.919Z,10.10
2023-04-16T02:52:29.850Z,9.84
2023-04-16T02:54:56.654Z,9.74
2023-04-16T02:57:23.411Z,9.72
2023-04-16T02:59:50.281Z,9.81
2023-04-16T03:02:17.253Z,9.89
2023-04-16T03:04:44.191Z,9.88
2023-04-16T03:07:12.554Z,9.92
2023-04-16T03:09:39.803Z,9.98
2023-04-16T03:12:06.664Z,10.06
2023-04-16T03:14:33.381Z,10.01
2023-04-16T03:17:00.240Z,10.00
2023-04-16T03:19:26.970Z,9.78
2023-04-16T03:21:54.033Z,9.67
2023-04-16T03:24:20.752Z,9.70
2023-04-16T03:26:49.068Z,9.66
2023-04-16T03:29:16.192Z,9.69
2023-04-16T03:31:43.301Z,9.50
2023-04-16T03:34:10.802Z,9.54
2023-04-16T03:36:39.856Z,9.56
2023-04-16T03:39:06.606Z,9.64
2023-04-16T03:41:33.414Z,9.66
2023-04-16T03:44:00.597Z,9.41
2023-04-16T03:46:27.533Z,9.34
2023-04-16T03:48:54.604Z,9.20
2023-04-16T03:51:26.573Z,9.19
2023-04-16T03:53:53.539Z,9.08
2023-04-16T03:56:20.870Z,9.13
2023-04-16T03:58:47.602Z,9.29
2023-04-16T04:01:14.326Z,9.34
2023-04-16T04:03:41.423Z,9.10
2023-04-16T04:06:09.083Z,9.01
2023-04-16T04:08:36.130Z,9.01
2023-04-16T04:11:04.761Z,8.92
2023-04-16T04:13:32.949Z,9.03
2023-04-16T04:15:59.792Z,9.17
2023-04-16T04:18:27.542Z,9.23
2023-04-16T04:20:54.292Z,9.23
2023-04-16T04:23:24.634Z,8.92
2023-04-16T04:25:51.507Z,8.91
2023-04-16T04:28:18.474Z,8.84
2023-04-16T04:30:45.306Z,8.83
2023-04-16T04:33:12.818Z,8.77
2023-04-16T04:35:39.701Z,8.74
2023-04-16T04:38:08.307Z,8.65
2023-04-16T04:40:35.192Z,8.80
2023-04-16T04:43:03.032Z,8.76
2023-04-16T04:45:31.807Z,8.73
2023-04-16T04:47:59.150Z,8.65
2023-04-16T04:50:26.062Z,8.56
2023-04-16T04:52:52.974Z,8.54
2023-04-16T04:55:19.714Z,8.64
2023-04-16T04:57:46.630Z,8.80
2023-04-16T05:00:13.778Z,8.88
2023-04-16T05:02:51.181Z,8.77
2023-04-16T05:05:18.065Z,8.83
2023-04-16T05:07:44.753Z,8.88
2023-04-16T05:10:11.519Z,9.05
2023-04-16T05:12:38.260Z,9.12
2023-04-16T05:15:05.364Z,9.06
2023-04-16T05:17:32.163Z,8.87
2023-04-16T05:19:58.966Z,8.88
2023-04-16T05:22:25.655Z,8.93
2023-04-16T05:24:52.495Z,8.95
2023-04-16T05:27:19.172Z,8.97
2023-04-16T05:29:45.951Z,8.86
2023-04-16T05:32:12.732Z,8.95
2023-04-16T05:34:39.438Z,9.03
2023-04-16T05:37:08.717Z,9.06
2023-04-16T05:39:35.533Z,9.10
2023-04-16T05:42:02.349Z,8.89
2023-04-16T05:44:29.092Z,8.77
2023-04-16T05:46:55.819Z,8.80
2023-04-16T05:49:22.577Z,8.89
2023-04-16T05:51:50.897Z,9.05
2023-04-16T05:54:17.859Z,9.18
2023-04-16T05:56:44.585Z,9.21
2023-04-16T05:59:11.725Z,9.41
2023-04-16T06:01:41.440Z,9.52
2023-04-16T06:04:08.266Z,9.68
2023-04-16T06:06:37.452Z,9.80
2023-04-16T06:09:04.415Z,9.92
2023-04-16T06:11:31.233Z,10.02
2023-04-16T06:13:58.310Z,10.15
2023-04-16T06:16:26.300Z,10.20
2023-04-16T06:18:53.200Z,10.27
2023-04-16T06:21:20.132Z,10.35
2023-04-16T06:23:47.034Z,10.41
2023-04-16T06:26:13.746Z,10.46
2023-04-16T06:28:40.505Z,10.50
2023-04-16T06:31:07.271Z,10.61
2023-04-16T06:33:34.104Z,10.71
2023-04-16T06:36:00.975Z,10.84
2023-04-16T06:38:27.765Z,11.04
2023-04-16T06:40:54.499Z,11.15
2023-04-16T06:43:21.728Z,11.15
2023-04-16T06:45:48.499Z,11.24
2023-04-16T06:48:15.633Z,11.32
2023-04-16T06:50:42.590Z,11.37
2023-04-16T06:53:09.444Z,11.57
2023-04-16T06:55:36.246Z,11.71
2023-04-16T06:58:03.664Z,11.76
2023-04-16T07:00:30.499Z,11.75
2023-04-16T07:03:01.513Z,11.79
2023-04-16T07:05:28.511Z,11.81
2023-04-16T07:07:57.537Z,11.88
2023-04-16T07:10:24.395Z,11.99
2023-04-16T07:12:51.330Z,12.06
2023-04-16T07:15:18.260Z,12.29
2023-04-16T07:17:45.022Z,12.35
2023-04-16T07:20:12.162Z,12.54
2023-04-16T07:22:38.984Z,12.66
2023-04-16T07:25:06.353Z,12.71
2023-04-16T07:27:33.141Z,12.75
2023-04-16T07:29:59.903Z,12.93
2023-04-16T07:32:26.766Z,13.03
2023-04-16T07:34:53.709Z,13.04
2023-04-16T07:37:20.486Z,13.13
2023-04-16T07:39:47.489Z,13.17
2023-04-16T07:42:14.410Z,13.18
2023-04-16T07:44:41.300Z,13.25
2023-04-16T07:47:08.035Z,13.29
2023-04-16T07:49:34.794Z,13.47
2023-04-16T07:52:02.269Z,13.69
2023-04-16T07:54:29.302Z,13.93
2023-04-16T07:56:56.085Z,14.09
2023-04-16T07:59:24.272Z,14.13
2023-04-16T08:01:53.348Z,14.11
2023-04-16T08:04:25.669Z,14.16
2023-04-16T08:06:53.501Z,14.16
2023-04-16T08:09:22.058Z,14.23
2023-04-16T08:11:49.980Z,14.26
2023-04-16T08:14:17.524Z,14.33
2023-04-16T08:16:44.507Z,14.31
2023-04-16T08:19:11.605Z,14.23
2023-04-16T08:21:38.948Z,14.23
2023-04-16T08:24:05.907Z,14.28
2023-04-16T08:26:32.677Z,14.26
2023-04-16T08:28:59.345Z,14.22
2023-04-16T08:31:26.368Z,14.17
2023-04-16T08:33:53.096Z,14.17
2023-04-16T08:36:19.984Z,14.29
2023-04-16T08:38:49.178Z,14.33
2023-04-16T08:41:16.228Z,14.38
2023-04-16T08:43:45.510Z,14.43
2023-04-16T08:46:12.757Z,14.33
2023-04-16T08:48:43.365Z,14.28
2023-04-16T08:51:11.197Z,14.26
2023-04-16T08:53:49.452Z,14.25
2023-04-16T08:56:23.683Z,14.34
2023-04-16T08:58:51.802Z,14.32
2023-04-16T09:01:19.428Z,14.37
2023-04-16T09:03:49.861Z,14.55
2023-04-16T09:06:17.539Z,14.55
2023-04-16T09:08:46.375Z,14.46
2023-04-16T09:11:19.815Z,14.39
2023-04-16T09:13:47.442Z,14.34
2023-04-16T09:16:15.480Z,14.26
2023-04-16T09:18:42.382Z,14.21
2023-04-16T09:21:12.992Z,14.17
2023-04-16T09:23:41.132Z,14.28
2023-04-16T09:26:07.977Z,14.41
2023-04-16T09:28:45.708Z,14.36
2023-04-16T09:31:17.340Z,14.29
2023-04-16T09:34:01.220Z,14.27
2023-04-16T09:36:28.376Z,14.26
2023-04-16T09:38:57.602Z,14.29
2023-04-16T09:41:27.671Z,14.34
2023-04-16T09:44:04.387Z,14.51
2023-04-16T09:46:32.177Z,14.82
2023-04-16T09:49:04.759Z,15.11
2023-04-16T09:51:37.877Z,15.15
2023-04-16T09:54:06.197Z,15.23
2023-04-16T09:56:32.922Z,15.41
2023-04-16T09:59:02.652Z,15.47
2023-04-16T10:01:31.083Z,15.39
2023-04-16T10:04:00.029Z,15.32
2023-04-16T10:06:29.756Z,15.24
2023-04-16T10:08:57.215Z,15.18
2023-04-16T10:11:24.323Z,15.17
2023-04-16T10:13:51.635Z,15.18
2023-04-16T10:16:18.663Z,15.26
2023-04-16T10:18:46.977Z,15.45
2023-04-16T10:21:15.447Z,15.67
2023-04-16T10:23:43.991Z,15.91
2023-04-16T10:26:10.868Z,16.13
2023-04-16T10:28:37.814Z,16.28
2023-04-16T10:31:08.443Z,16.49
2023-04-16T10:33:39.454Z,16.67
2023-04-16T10:36:10.877Z,16.74
2023-04-16T10:39:00.902Z,16.77
2023-04-16T10:41:27.863Z,16.92
2023-04-16T10:44:11.779Z,17.13
2023-04-16T10:46:39.777Z,17.23
2023-04-16T10:49:15.172Z,17.37
2023-04-16T10:51:42.611Z,17.49
2023-04-16T10:54:10.194Z,17.52
2023-04-16T10:56:37.789Z,17.62
2023-04-16T10:59:06.409Z,17.68
2023-04-16T11:01:38.372Z,17.70
2023-04-16T11:04:20.926Z,17.71
2023-04-16T11:07:08.175Z,17.77
2023-04-16T11:09:47.226Z,17.84
2023-04-16T11:12:16.378Z,17.86
2023-04-16T11:14:47.127Z,17.93
2023-04-16T11:17:14.035Z,17.99
2023-04-16T11:19:44.045Z,17.96
2023-04-16T11:22:17.411Z,18.09
2023-04-16T11:24:45.770Z,18.17
2023-04-16T11:27:16.155Z,18.16
2023-04-16T11:29:44.559Z,18.15
2023-04-16T11:32:22.000Z,18.17
2023-04-16T11:34:49.001Z,18.24
2023-04-16T11:37:16.248Z,18.21
2023-04-16T11:39:51.188Z,18.31
2023-04-16T11:42:25.176Z,18.40
2023-04-16T11:44:54.323Z,18.45
2023-04-16T11:47:21.510Z,18.52
2023-04-16T11:49:48.526Z,18.61
2023-04-16T11:52:29.261Z,18.63
2023-04-16T11:54:57.147Z,18.72
2023-04-16T11:57:28.215Z,18.76
2023-04-16T12:00:01.378Z,18.78
2023-04-16T12:02:45.200Z,18.86
2023-04-16T12:05:39.134Z,18.87
2023-04-16T12:08:11.017Z,18.86
2023-04-16T12:10:53.580Z,18.93
2023-04-16T12:13:20.447Z,19.05
2023-04-16T12:15:56.083Z,19.01
2023-04-16T12:18:28.995Z,19.08
2023-04-16T12:20:56.180Z,19.08
2023-04-16T12:23:31.984Z,19.04
2023-04-16T12:26:03.139Z,18.93
2023-04-16T12:28:32.575Z,18.98
2023-04-16T12:30:59.849Z,19.00
2023-04-16T12:33:26.755Z,18.93
2023-04-16T12:35:53.589Z,18.85
2023-04-16T12:38:22.185Z,18.84
2023-04-16T12:40:50.823Z,18.85
2023-04-16T12:43:21.525Z,18.83
2023-04-16T12:45:49.482Z,18.84
2023-04-16T12:48:16.246Z,18.77
2023-04-16T12:50:44.372Z,18.84
2023-04-16T12:53:11.988Z,18.80
2023-04-16T12:55:38.811Z,18.70
2023-04-16T12:58:10.556Z,18.64
2023-04-16T13:00:38.737Z,18.58
2023-04-16T13:03:05.683Z,18.48
2023-04-16T13:05:32.917Z,18.37
2023-04-16T13:07:59.649Z,18.31
2023-04-16T13:10:28.002Z,18.46
2023-04-16T13:12:54.732Z,18.52
2023-04-16T13:15:21.707Z,18.50
2023-04-16T13:17:48.670Z,18.43
2023-04-16T13:20:15.554Z,18.43
2023-04-16T13:22:42.342Z,18.58
2023-04-16T13:25:10.432Z,18.57
2023-04-16T13:27:37.163Z,18.54
2023-04-16T13:30:04.149Z,18.58
2023-04-16T13:32:31.501Z,18.63
2023-04-16T13:34:58.266Z,18.60
2023-04-16T13:37:25.094Z,18.51
2023-04-16T13:39:51.799Z,18.51
2023-04-16T13:42:18.626Z,18.51
2023-04-16T13:44:48.891Z,18.48
2023-04-16T13:47:16.145Z,18.42
2023-04-16T13:49:42.839Z,18.44
2023-04-16T13:52:09.657Z,18.30
2023-04-16T13:54:36.386Z,18.18
2023-04-16T13:57:03.334Z,18.17
2023-04-16T13:59:30.362Z,18.18
2023-04-16T14:01:57.781Z,18.34
2023-04-16T14:04:24.781Z,18.31
2023-04-16T14:06:51.873Z,18.25
2023-04-16T14:09:18.685Z,18.25
2023-04-16T14:11:45.573Z,18.44
2023-04-16T14:14:12.398Z,18.60
2023-04-16T14:16:39.263Z,18.64
2023-04-16T14:19:06.036Z,18.64
2023-04-16T14:21:32.833Z,18.59
2023-04-16T14:23:59.628Z,18.50
2023-04-16T14:26:26.388Z,18.53
2023-04-16T14:28:53.164Z,18.57
2023-04-16T14:31:20.623Z,18.58
2023-04-16T14:33:47.425Z,18.62
2023-04-16T14:36:14.436Z,18.70
2023-04-16T14:38:43.271Z,18.93
2023-04-16T14:41:14.417Z,19.00
2023-04-16T14:43:41.528Z,18.95
2023-04-16T14:46:08.497Z,19.01
2023-04-16T14:48:35.517Z,19.04
2023-04-16T14:51:02.318Z,19.02
2023-04-16T14:53:29.163Z,18.98
2023-04-16T14:55:59.123Z,18.93
2023-04-16T14:58:26.354Z,18.97
2023-04-16T15:00:53.512Z,19.00
2023-04-16T15:03:20.776Z,19.06
2023-04-16T15:05:54.762Z,19.13
2023-04-16T15:08:22.555Z,19.16
2023-04-16T15:10:49.308Z,19.09
2023-04-16T15:13:16.139Z,18.88
2023-04-16T15:15:43.536Z,18.75
2023-04-16T15:18:10.517Z,18.72
2023-04-16T15:20:37.281Z,18.83
2023-04-16T15:23:04.169Z,18.87
2023-04-16T15:25:32.089Z,18.85
2023-04-16T15:27:59.442Z,18.84
2023-04-16T15:30:26.208Z,18.73
2023-04-16T15:32:55.069Z,18.68
2023-04-16T15:35:22.008Z,18.58
2023-04-16T15:37:48.989Z,18.56
2023-04-16T15:40:18.738Z,18.64
2023-04-16T15:42:45.730Z,18.54
2023-04-16T15:45:12.571Z,18.46
2023-04-16T15:47:41.688Z,18.47
2023-04-16T15:50:09.014Z,18.51
2023-04-16T15:52:55.714Z,18.48
2023-04-16T15:55:22.588Z,18.38
2023-04-16T15:57:49.362Z,18.24
2023-04-16T16:00:19.301Z,18.12
2023-04-16T16:02:47.238Z,18.09
2023-04-16T16:05:15.182Z,18.00
2023-04-16T16:07:42.786Z,17.96
2023-04-16T16:10:10.814Z,17.91
2023-04-16T16:12:37.738Z,18.00
2023-04-16T16:15:06.521Z,17.98
2023-04-16T16:17:33.822Z,17.92
2023-04-16T16:20:01.214Z,17.71
2023-04-16T16:22:28.632Z,17.52
2023-04-16T16:24:56.517Z,17.34
2023-04-16T16:27:23.258Z,17.38
2023-04-16T16:29:50.267Z,17.53
2023-04-16T16:32:17.298Z,17.59
2023-04-16T16:34:44.136Z,17.69
2023-04-16T16:37:11.095Z,17.65
2023-04-16T16:39:38.924Z,17.60
2023-04-16T16:42:06.289Z,17.56
2023-04-16T16:44:33.022Z,17.42
2023-04-16T16:46:59.938Z,17.25
2023-04-16T16:49:26.903Z,17.09
2023-04-16T16:51:53.732Z,17.06
2023-04-16T16:54:20.937Z,17.00
2023-04-16T16:56:47.728Z,16.94
2023-04-16T16:59:14.594Z,16.89
2023-04-16T17:01:41.971Z,17.06
2023-04-16T17:04:08.815Z,17.03
2023-04-16T17:06:36.091Z,16.98
2023-04-16T17:09:03.993Z,17.03
2023-04-16T17:11:31.297Z,17.15
2023-04-16T17:13:58.102Z,16.99
2023-04-16T17:16:26.105Z,16.87
2023-04-16T17:18:53.022Z,16.87
2023-04-16T17:21:19.903Z,16.86
2023-04-16T17:23:46.740Z,16.87
2023-04-16T17:26:13.852Z,16.68
2023-04-16T17:28:40.896Z,16.68
2023-04-16T17:31:08.671Z,16.63
2023-04-16T17:33:35.974Z,16.55
2023-04-16T17:36:03.010Z,16.51
2023-04-16T17:38:29.907Z,16.46
2023-04-16T17:40:57.748Z,16.38
2023-04-16T17:43:24.668Z,16.30
2023-04-16T17:45:51.532Z,16.21
2023-04-16T17:48:18.381Z,16.19
2023-04-16T17:50:45.239Z,16.12
2023-04-16T17:53:12.396Z,16.05
2023-04-16T17:55:39.587Z,15.99
2023-04-16T17:58:06.354Z,15.95
2023-04-16T18:00:33.466Z,15.97
2023-04-16T18:03:00.722Z,15.99
2023-04-16T18:05:27.701Z,15.93
2023-04-16T18:07:55.483Z,15.86
2023-04-16T18:10:22.304Z,15.78
2023-04-16T18:12:49.240Z,15.68
2023-04-16T18:15:16.327Z,15.61
2023-04-16T18:17:43.040Z,15.49
2023-04-16T18:20:10.828Z,15.42
2023-04-16T18:22:37.627Z,15.40
2023-04-16T18:25:05.416Z,15.37
2023-04-16T18:27:32.224Z,15.33
2023-04-16T18:29:59.478Z,15.28
2023-04-16T18:32:30.345Z,15.25
2023-04-16T18:34:57.816Z,15.23
2023-04-16T18:37:24.657Z,15.22
2023-04-16T18:39:51.463Z,15.13
2023-04-16T18:42:18.291Z,15.10
2023-04-16T18:44:51.744Z,15.03
2023-04-16T18:47:19.004Z,14.99
2023-04-16T18:49:45.907Z,14.96
2023-04-16T18:52:13.159Z,14.94
2023-04-16T18:54:41.993Z,14.90
2023-04-16T18:57:08.730Z,14.81
2023-04-16T18:59:35.777Z,14.79
2023-04-16T19:02:02.658Z,14.75
2023-04-16T19:04:29.474Z,14.66
2023-04-16T19:06:56.700Z,14.47
2023-04-16T19:09:25.413Z,14.36
2023-04-16T19:11:52.225Z,14.33
2023-04-16T19:14:18.987Z,14.30
2023-04-16T19:16:45.903Z,14.16
2023-04-16T19:19:12.878Z,14.07
2023-04-16T19:21:39.838Z,14.10
2023-04-16T19:24:07.191Z,13.92
2023-04-16T19:26:34.225Z,13.65
2023-04-16T19:29:01.123Z,13.69
2023-04-16T19:31:29.636Z,13.76
2023-04-16T19:33:56.585Z,13.76
2023-04-16T19:36:23.489Z,13.71
2023-04-16T19:38:50.667Z,13.68
2023-04-16T19:41:17.910Z,13.70
2023-04-16T19:43:44.916Z,13.77
2023-04-16T19:46:11.981Z,13.79
2023-04-16T19:48:38.817Z,13.65
2023-04-16T19:51:05.814Z,13.61
2023-04-16T19:53:32.758Z,13.63
2023-04-16T19:56:01.906Z,13.62
2023-04-16T19:58:28.726Z,13.63
2023-04-16T20:00:56.513Z,13.64
2023-04-16T20:03:23.443Z,13.67
2023-04-16T20:05:50.492Z,13.67
2023-04-16T20:08:17.525Z,13.69
2023-04-16T20:10:47.355Z,13.74
2023-04-16T20:13:16.100Z,13.72
2023-04-16T20:15:44.911Z,13.61
2023-04-16T20:18:12.920Z,13.56
2023-04-16T20:20:40.385Z,13.38
2023-04-16T20:23:07.316Z,13.38
2023-04-16T20:25:34.367Z,13.37
2023-04-16T20:28:01.151Z,13.52
2023-04-16T20:30:29.187Z,13.50
2023-04-16T20:32:56.686Z,13.18
2023-04-16T20:35:23.734Z,13.02
2023-04-16T20:37:50.637Z,13.04
2023-04-16T20:40:17.536Z,12.96
2023-04-16T20:42:46.401Z,12.81
2023-04-16T20:45:13.469Z,12.85
2023-04-16T20:47:40.821Z,12.77
2023-04-16T20:50:08.298Z,12.81
2023-04-16T20:52:36.483Z,12.79
2023-04-16T20:55:03.700Z,12.85
2023-04-16T20:57:32.080Z,12.85
2023-04-16T20:59:58.984Z,12.87
2023-04-16T21:02:28.011Z,12.91
2023-04-16T21:04:55.337Z,12.96
2023-04-16T21:07:22.121Z,12.96
2023-04-16T21:09:48.846Z,12.97
2023-04-16T21:12:15.605Z,13.07
2023-04-16T21:14:42.612Z,13.10
2023-04-16T21:17:09.453Z,13.14
2023-04-16T21:19:36.234Z,13.24
2023-04-16T21:22:03.219Z,13.29
2023-04-16T21:24:31.980Z,13.25
2023-04-16T21:26:58.746Z,13.20
2023-04-16T21:29:25.511Z,13.27
2023-04-16T21:31:52.689Z,13.30
2023-04-16T21:34:19.690Z,13.18
2023-04-16T21:36:46.688Z,13.10
2023-04-16T21:39:14.230Z,13.10
2023-04-16T21:41:41.103Z,13.05
2023-04-16T21:44:07.766Z,12.67
2023-04-16T21:46:34.591Z,12.63
2023-04-16T21:49:01.358Z,12.58
2023-04-16T21:51:30.952Z,12.62
2023-04-16T21:53:58.083Z,12.60
2023-04-16T21:56:25.883Z,12.67
2023-04-16T21:58:52.657Z,12.70
2023-04-16T22:01:19.486Z,12.79
2023-04-16T22:03:50.753Z,12.78
2023-04-16T22:06:17.917Z,12.68
2023-04-16T22:08:44.622Z,12.47
2023-04-16T22:11:11.430Z,12.49
2023-04-16T22:13:42.063Z,12.54
2023-04-16T22:16:11.516Z,12.55
2023-04-16T22:18:41.238Z,12.38
2023-04-16T22:21:09.253Z,12.40
2023-04-16T22:23:36.149Z,12.46
2023-04-16T22:26:04.316Z,12.55
2023-04-16T22:28:31.480Z,12.49
2023-04-16T22:30:58.353Z,12.48
2023-04-16T22:33:25.125Z,12.39
2023-04-16T22:35:52.014Z,12.44
2023-04-16T22:38:18.906Z,12.47
2023-04-16T22:40:48.427Z,12.46
2023-04-16T22:43:16.162Z,12.39
2023-04-16T22:45:43.233Z,12.40
2023-04-16T22:48:10.151Z,12.44
2023-04-16T22:50:36.901Z,12.47
2023-04-16T22:53:03.716Z,12.35
2023-04-16T22:55:30.673Z,11.82
2023-04-16T22:57:57.494Z,11.90
2023-04-16T23:00:27.426Z,11.99
2023-04-16T23:02:54.173Z,12.16
2023-04-16T23:05:21.107Z,12.20
2023-04-16T23:07:47.845Z,12.29
2023-04-16T23:10:14.634Z,12.22
2023-04-16T23:12:41.590Z,12.05
2023-04-16T23:15:09.003Z,11.86
2023-04-16T23:17:36.115Z,11.88
2023-04-16T23:20:05.312Z,11.86
2023-04-16T23:22:32.160Z,11.70
2023-04-16T23:24:58.799Z,11.78
2023-04-16T23:27:25.576Z,11.90
2023-04-16T23:29:52.354Z,12.05
2023-04-16T23:32:19.290Z,12.00
2023-04-16T23:34:46.052Z,12.06
2023-04-16T23:37:12.855Z,12.07
2023-04-16T23:39:39.579Z,11.81
2023-04-16T23:42:06.489Z,11.78
2023-04-16T23:44:33.575Z,11.67
2023-04-16T23:47:00.573Z,11.67
2023-04-16T23:49:27.443Z,11.56
2023-04-16T23:51:54.255Z,11.58
2023-04-16T23:54:21.445Z,11.67
2023-04-16T23:56:48.688Z,11.40
2023-04-16T23:59:18.300Z,11.37
